sensor_id;sensor_type;location;lat;lon;timestamp;temperature;humidity
67354;SHT30;54238;52.278;21.056;2022-07-29T00:01:50;17.73;63.24
67354;SHT30;54238;52.278;21.056;2022-07-29T00:04:21;17.72;63.37
67354;SHT30;54238;52.278;21.056;2022-07-29T00:06:50;17.70;63.56
67354;SHT30;54238;52.278;21.056;2022-07-29T00:09:20;17.68;63.75
67354;SHT30;54238;52.278;21.056;2022-07-29T00:11:52;17.65;63.86
67354;SHT30;54238;52.278;21.056;2022-07-29T00:14:25;17.58;64.06
67354;SHT30;54238;52.278;21.056;2022-07-29T00:16:54;17.56;64.18
67354;SHT30;54238;52.278;21.056;2022-07-29T00:19:27;17.53;64.29
67354;SHT30;54238;52.278;21.056;2022-07-29T00:21:57;17.49;64.54
67354;SHT30;54238;52.278;21.056;2022-07-29T00:24:26;17.50;64.53
67354;SHT30;54238;52.278;21.056;2022-07-29T00:26:56;17.52;64.65
67354;SHT30;54238;52.278;21.056;2022-07-29T00:29:23;17.52;64.71
67354;SHT30;54238;52.278;21.056;2022-07-29T00:31:50;17.50;64.92
67354;SHT30;54238;52.278;21.056;2022-07-29T00:34:20;17.49;64.94
67354;SHT30;54238;52.278;21.056;2022-07-29T00:37:06;17.49;65.01
67354;SHT30;54238;52.278;21.056;2022-07-29T00:39:33;17.48;65.08
67354;SHT30;54238;52.278;21.056;2022-07-29T00:42:02;17.46;65.22
67354;SHT30;54238;52.278;21.056;2022-07-29T00:44:35;17.45;65.28
67354;SHT30;54238;52.278;21.056;2022-07-29T00:47:10;17.42;65.24
67354;SHT30;54238;52.278;21.056;2022-07-29T00:49:41;17.35;65.37
67354;SHT30;54238;52.278;21.056;2022-07-29T00:52:11;17.30;65.57
67354;SHT30;54238;52.278;21.056;2022-07-29T00:54:41;17.28;65.73
67354;SHT30;54238;52.278;21.056;2022-07-29T00:57:12;17.24;65.87
67354;SHT30;54238;52.278;21.056;2022-07-29T00:59:40;17.24;66.03
67354;SHT30;54238;52.278;21.056;2022-07-29T01:02:09;17.21;65.99
67354;SHT30;54238;52.278;21.056;2022-07-29T01:04:36;17.18;66.01
67354;SHT30;54238;52.278;21.056;2022-07-29T01:07:07;17.11;66.26
67354;SHT30;54238;52.278;21.056;2022-07-29T01:09:56;17.11;66.42
67354;SHT30;54238;52.278;21.056;2022-07-29T01:12:33;17.12;66.41
67354;SHT30;54238;52.278;21.056;2022-07-29T01:15:49;17.09;66.45
67354;SHT30;54238;52.278;21.056;2022-07-29T01:18:30;17.09;66.39
67354;SHT30;54238;52.278;21.056;2022-07-29T01:24:33;17.07;66.43
67354;SHT30;54238;52.278;21.056;2022-07-29T01:30:44;17.06;66.56
67354;SHT30;54238;52.278;21.056;2022-07-29T01:33:18;17.02;66.69
67354;SHT30;54238;52.278;21.056;2022-07-29T01:36:22;17.01;66.87
67354;SHT30;54238;52.278;21.056;2022-07-29T01:42:15;16.96;67.03
67354;SHT30;54238;52.278;21.056;2022-07-29T01:45:37;16.96;67.14
67354;SHT30;54238;52.278;21.056;2022-07-29T01:48:31;16.92;67.33
67354;SHT30;54238;52.278;21.056;2022-07-29T01:56:51;16.82;67.75
67354;SHT30;54238;52.278;21.056;2022-07-29T01:59:23;16.79;67.86
67354;SHT30;54238;52.278;21.056;2022-07-29T02:01:58;16.77;67.96
67354;SHT30;54238;52.278;21.056;2022-07-29T02:04:31;16.77;68.05
67354;SHT30;54238;52.278;21.056;2022-07-29T02:07:05;16.74;68.07
67354;SHT30;54238;52.278;21.056;2022-07-29T02:09:42;16.73;68.32
67354;SHT30;54238;52.278;21.056;2022-07-29T02:12:15;16.70;68.48
67354;SHT30;54238;52.278;21.056;2022-07-29T02:14:48;16.69;68.53
67354;SHT30;54238;52.278;21.056;2022-07-29T02:17:35;16.67;68.62
67354;SHT30;54238;52.278;21.056;2022-07-29T02:20:12;16.64;68.66
67354;SHT30;54238;52.278;21.056;2022-07-29T02:22:45;16.60;68.75
67354;SHT30;54238;52.278;21.056;2022-07-29T02:25:19;16.59;68.88
67354;SHT30;54238;52.278;21.056;2022-07-29T02:27:51;16.57;68.97
67354;SHT30;54238;52.278;21.056;2022-07-29T02:30:19;16.57;69.15
67354;SHT30;54238;52.278;21.056;2022-07-29T02:32:54;16.55;69.15
67354;SHT30;54238;52.278;21.056;2022-07-29T02:35:22;16.51;69.18
67354;SHT30;54238;52.278;21.056;2022-07-29T02:37:55;16.50;69.26
67354;SHT30;54238;52.278;21.056;2022-07-29T02:40:44;16.47;69.29
67354;SHT30;54238;52.278;21.056;2022-07-29T02:43:14;16.42;69.53
67354;SHT30;54238;52.278;21.056;2022-07-29T02:45:55;16.41;69.56
67354;SHT30;54238;52.278;21.056;2022-07-29T02:48:27;16.42;69.59
67354;SHT30;54238;52.278;21.056;2022-07-29T02:51:08;16.43;69.57
67354;SHT30;54238;52.278;21.056;2022-07-29T02:53:47;16.43;69.57
67354;SHT30;54238;52.278;21.056;2022-07-29T02:56:23;16.42;69.68
67354;SHT30;54238;52.278;21.056;2022-07-29T02:58:58;16.42;69.69
67354;SHT30;54238;52.278;21.056;2022-07-29T03:01:32;16.42;69.66
67354;SHT30;54238;52.278;21.056;2022-07-29T03:04:03;16.42;69.88
67354;SHT30;54238;52.278;21.056;2022-07-29T03:06:31;16.42;69.82
67354;SHT30;54238;52.278;21.056;2022-07-29T03:09:03;16.40;69.83
67354;SHT30;54238;52.278;21.056;2022-07-29T03:11:34;16.38;69.86
67354;SHT30;54238;52.278;21.056;2022-07-29T03:14:02;16.38;69.84
67354;SHT30;54238;52.278;21.056;2022-07-29T03:16:37;16.39;69.84
67354;SHT30;54238;52.278;21.056;2022-07-29T03:19:06;16.38;69.96
67354;SHT30;54238;52.278;21.056;2022-07-29T03:21:34;16.35;70.08
67354;SHT30;54238;52.278;21.056;2022-07-29T03:24:01;16.33;70.10
67354;SHT30;54238;52.278;21.056;2022-07-29T03:26:28;16.32;70.26
67354;SHT30;54238;52.278;21.056;2022-07-29T03:28:56;16.33;70.36
67354;SHT30;54238;52.278;21.056;2022-07-29T03:31:23;16.35;70.38
67354;SHT30;54238;52.278;21.056;2022-07-29T03:33:50;16.35;70.37
67354;SHT30;54238;52.278;21.056;2022-07-29T03:36:17;16.35;70.48
67354;SHT30;54238;52.278;21.056;2022-07-29T03:38:44;16.36;70.58
67354;SHT30;54238;52.278;21.056;2022-07-29T03:41:17;16.38;70.65
67354;SHT30;54238;52.278;21.056;2022-07-29T03:43:48;16.39;70.80
67354;SHT30;54238;52.278;21.056;2022-07-29T03:46:19;16.41;70.93
67354;SHT30;54238;52.278;21.056;2022-07-29T03:48:50;16.36;71.11
67354;SHT30;54238;52.278;21.056;2022-07-29T03:51:31;16.37;71.30
67354;SHT30;54238;52.278;21.056;2022-07-29T03:53:58;16.42;71.38
67354;SHT30;54238;52.278;21.056;2022-07-29T03:56:25;16.46;71.42
67354;SHT30;54238;52.278;21.056;2022-07-29T03:59:00;16.47;71.50
67354;SHT30;54238;52.278;21.056;2022-07-29T04:01:32;16.51;71.52
67354;SHT30;54238;52.278;21.056;2022-07-29T04:04:03;16.54;71.59
67354;SHT30;54238;52.278;21.056;2022-07-29T04:06:40;16.57;71.57
67354;SHT30;54238;52.278;21.056;2022-07-29T04:09:10;16.59;71.64
67354;SHT30;54238;52.278;21.056;2022-07-29T04:11:40;16.61;71.67
67354;SHT30;54238;52.278;21.056;2022-07-29T04:14:11;16.64;71.68
67354;SHT30;54238;52.278;21.056;2022-07-29T04:19:19;16.72;71.73
67354;SHT30;54238;52.278;21.056;2022-07-29T04:24:47;16.78;71.72
67354;SHT30;54238;52.278;21.056;2022-07-29T04:27:16;16.83;71.80
67354;SHT30;54238;52.278;21.056;2022-07-29T04:29:48;16.85;71.73
67354;SHT30;54238;52.278;21.056;2022-07-29T04:32:15;16.89;71.73
67354;SHT30;54238;52.278;21.056;2022-07-29T04:34:45;16.92;71.64
67354;SHT30;54238;52.278;21.056;2022-07-29T04:37:13;16.93;71.62
67354;SHT30;54238;52.278;21.056;2022-07-29T04:39:42;16.96;71.67
67354;SHT30;54238;52.278;21.056;2022-07-29T04:42:09;17.02;71.65
67354;SHT30;54238;52.278;21.056;2022-07-29T04:44:36;17.09;71.56
67354;SHT30;54238;52.278;21.056;2022-07-29T04:47:03;17.13;71.48
67354;SHT30;54238;52.278;21.056;2022-07-29T04:49:39;17.17;71.38
67354;SHT30;54238;52.278;21.056;2022-07-29T04:52:06;17.22;71.31
67354;SHT30;54238;52.278;21.056;2022-07-29T04:54:35;17.26;71.30
67354;SHT30;54238;52.278;21.056;2022-07-29T04:57:02;17.30;71.35
67354;SHT30;54238;52.278;21.056;2022-07-29T04:59:29;17.34;71.28
67354;SHT30;54238;52.278;21.056;2022-07-29T05:01:56;17.40;71.14
67354;SHT30;54238;52.278;21.056;2022-07-29T05:04:23;17.47;71.01
67354;SHT30;54238;52.278;21.056;2022-07-29T05:06:53;17.51;70.93
67354;SHT30;54238;52.278;21.056;2022-07-29T05:09:20;17.58;70.92
67354;SHT30;54238;52.278;21.056;2022-07-29T05:11:47;17.63;70.81
67354;SHT30;54238;52.278;21.056;2022-07-29T05:14:19;17.70;70.74
67354;SHT30;54238;52.278;21.056;2022-07-29T05:16:46;17.77;70.58
67354;SHT30;54238;52.278;21.056;2022-07-29T05:19:15;17.84;70.47
67354;SHT30;54238;52.278;21.056;2022-07-29T05:21:46;17.90;70.36
67354;SHT30;54238;52.278;21.056;2022-07-29T05:24:14;17.94;70.14
67354;SHT30;54238;52.278;21.056;2022-07-29T05:26:43;18.00;70.07
67354;SHT30;54238;52.278;21.056;2022-07-29T05:29:17;18.06;70.01
67354;SHT30;54238;52.278;21.056;2022-07-29T05:31:44;18.11;69.79
67354;SHT30;54238;52.278;21.056;2022-07-29T05:34:11;18.18;69.54
67354;SHT30;54238;52.278;21.056;2022-07-29T05:36:43;18.24;69.43
67354;SHT30;54238;52.278;21.056;2022-07-29T05:39:10;18.28;69.38
67354;SHT30;54238;52.278;21.056;2022-07-29T05:44:40;18.42;69.04
67354;SHT30;54238;52.278;21.056;2022-07-29T05:47:10;18.49;68.85
67354;SHT30;54238;52.278;21.056;2022-07-29T05:49:40;18.56;68.57
67354;SHT30;54238;52.278;21.056;2022-07-29T05:52:12;18.63;68.18
67354;SHT30;54238;52.278;21.056;2022-07-29T05:54:40;18.68;67.97
67354;SHT30;54238;52.278;21.056;2022-07-29T06:00:10;18.83;67.45
67354;SHT30;54238;52.278;21.056;2022-07-29T06:02:40;18.91;67.20
67354;SHT30;54238;52.278;21.056;2022-07-29T06:05:07;18.97;67.02
67354;SHT30;54238;52.278;21.056;2022-07-29T06:07:41;19.04;66.82
67354;SHT30;54238;52.278;21.056;2022-07-29T06:10:09;19.10;66.84
67354;SHT30;54238;52.278;21.056;2022-07-29T06:15:13;19.21;66.34
67354;SHT30;54238;52.278;21.056;2022-07-29T06:17:41;19.27;66.01
67354;SHT30;54238;52.278;21.056;2022-07-29T06:20:10;19.34;65.95
67354;SHT30;54238;52.278;21.056;2022-07-29T06:22:38;19.42;65.59
67354;SHT30;54238;52.278;21.056;2022-07-29T06:25:05;19.51;65.40
67354;SHT30;54238;52.278;21.056;2022-07-29T06:27:32;19.60;65.11
67354;SHT30;54238;52.278;21.056;2022-07-29T06:30:01;19.68;65.08
67354;SHT30;54238;52.278;21.056;2022-07-29T06:32:29;19.76;64.87
67354;SHT30;54238;52.278;21.056;2022-07-29T06:34:57;19.84;64.61
67354;SHT30;54238;52.278;21.056;2022-07-29T06:37:29;19.94;64.42
67354;SHT30;54238;52.278;21.056;2022-07-29T06:39:58;20.05;64.19
67354;SHT30;54238;52.278;21.056;2022-07-29T06:42:46;20.16;63.86
67354;SHT30;54238;52.278;21.056;2022-07-29T06:45:16;20.28;63.58
67354;SHT30;54238;52.278;21.056;2022-07-29T06:47:48;20.40;63.16
67354;SHT30;54238;52.278;21.056;2022-07-29T06:50:17;20.51;62.70
67354;SHT30;54238;52.278;21.056;2022-07-29T06:52:44;20.62;62.64
67354;SHT30;54238;52.278;21.056;2022-07-29T06:55:13;20.75;62.42
67354;SHT30;54238;52.278;21.056;2022-07-29T06:57:40;20.86;61.96
67354;SHT30;54238;52.278;21.056;2022-07-29T07:00:08;20.99;62.02
67354;SHT30;54238;52.278;21.056;2022-07-29T07:02:38;21.11;61.40
67354;SHT30;54238;52.278;21.056;2022-07-29T07:05:10;21.22;61.03
67354;SHT30;54238;52.278;21.056;2022-07-29T07:07:42;21.37;60.97
67354;SHT30;54238;52.278;21.056;2022-07-29T07:10:09;21.53;60.67
67354;SHT30;54238;52.278;21.056;2022-07-29T07:12:36;21.66;60.20
67354;SHT30;54238;52.278;21.056;2022-07-29T07:15:05;21.78;59.55
67354;SHT30;54238;52.278;21.056;2022-07-29T07:17:35;21.90;59.06
67354;SHT30;54238;52.278;21.056;2022-07-29T07:20:07;21.98;58.70
67354;SHT30;54238;52.278;21.056;2022-07-29T07:22:39;22.07;58.59
67354;SHT30;54238;52.278;21.056;2022-07-29T07:25:08;22.16;58.22
67354;SHT30;54238;52.278;21.056;2022-07-29T07:27:41;22.25;58.62
67354;SHT30;54238;52.278;21.056;2022-07-29T07:30:10;22.36;58.39
67354;SHT30;54238;52.278;21.056;2022-07-29T07:32:40;22.45;57.65
67354;SHT30;54238;52.278;21.056;2022-07-29T07:35:10;22.54;57.24
67354;SHT30;54238;52.278;21.056;2022-07-29T07:37:38;22.64;57.08
67354;SHT30;54238;52.278;21.056;2022-07-29T07:40:10;22.77;57.25
67354;SHT30;54238;52.278;21.056;2022-07-29T07:42:38;22.91;57.02
67354;SHT30;54238;52.278;21.056;2022-07-29T07:45:07;22.99;56.21
67354;SHT30;54238;52.278;21.056;2022-07-29T07:47:36;23.03;55.59
67354;SHT30;54238;52.278;21.056;2022-07-29T07:50:04;23.08;55.46
67354;SHT30;54238;52.278;21.056;2022-07-29T07:52:45;23.17;55.61
67354;SHT30;54238;52.278;21.056;2022-07-29T07:55:19;23.29;55.71
67354;SHT30;54238;52.278;21.056;2022-07-29T07:57:49;23.39;54.94
67354;SHT30;54238;52.278;21.056;2022-07-29T08:00:18;23.42;54.83
67354;SHT30;54238;52.278;21.056;2022-07-29T08:02:50;23.48;54.48
67354;SHT30;54238;52.278;21.056;2022-07-29T08:05:19;23.55;54.64
67354;SHT30;54238;52.278;21.056;2022-07-29T08:07:47;23.64;54.55
67354;SHT30;54238;52.278;21.056;2022-07-29T08:10:17;23.77;54.64
67354;SHT30;54238;52.278;21.056;2022-07-29T08:13:08;23.93;54.30
67354;SHT30;54238;52.278;21.056;2022-07-29T08:15:39;24.03;54.24
67354;SHT30;54238;52.278;21.056;2022-07-29T08:18:12;24.15;53.85
67354;SHT30;54238;52.278;21.056;2022-07-29T08:20:44;24.28;52.98
67354;SHT30;54238;52.278;21.056;2022-07-29T08:23:14;24.38;52.73
67354;SHT30;54238;52.278;21.056;2022-07-29T08:25:48;24.47;52.45
67354;SHT30;54238;52.278;21.056;2022-07-29T08:28:52;24.55;52.20
67354;SHT30;54238;52.278;21.056;2022-07-29T08:31:24;24.63;51.28
67354;SHT30;54238;52.278;21.056;2022-07-29T08:33:51;24.68;51.38
67354;SHT30;54238;52.278;21.056;2022-07-29T08:36:18;24.82;51.18
67354;SHT30;54238;52.278;21.056;2022-07-29T08:38:47;24.97;50.52
67354;SHT30;54238;52.278;21.056;2022-07-29T08:41:19;25.10;49.92
67354;SHT30;54238;52.278;21.056;2022-07-29T08:43:47;25.19;49.21
67354;SHT30;54238;52.278;21.056;2022-07-29T08:46:20;25.34;48.72
67354;SHT30;54238;52.278;21.056;2022-07-29T08:48:48;25.51;47.81
67354;SHT30;54238;52.278;21.056;2022-07-29T08:51:19;25.66;47.10
67354;SHT30;54238;52.278;21.056;2022-07-29T08:53:48;25.67;46.89
67354;SHT30;54238;52.278;21.056;2022-07-29T08:56:21;25.71;46.52
67354;SHT30;54238;52.278;21.056;2022-07-29T08:58:52;25.90;45.83
67354;SHT30;54238;52.278;21.056;2022-07-29T09:01:22;26.07;45.52
67354;SHT30;54238;52.278;21.056;2022-07-29T09:03:57;26.23;45.10
67354;SHT30;54238;52.278;21.056;2022-07-29T09:06:28;26.41;44.82
67354;SHT30;54238;52.278;21.056;2022-07-29T09:09:00;26.50;44.42
67354;SHT30;54238;52.278;21.056;2022-07-29T09:11:27;26.54;43.75
67354;SHT30;54238;52.278;21.056;2022-07-29T09:13:57;26.57;43.69
67354;SHT30;54238;52.278;21.056;2022-07-29T09:16:48;26.60;43.87
67354;SHT30;54238;52.278;21.056;2022-07-29T09:19:20;26.87;43.28
67354;SHT30;54238;52.278;21.056;2022-07-29T09:22:10;27.18;42.93
67354;SHT30;54238;52.278;21.056;2022-07-29T09:24:39;27.43;42.67
67354;SHT30;54238;52.278;21.056;2022-07-29T09:29:48;27.45;42.58
67354;SHT30;54238;52.278;21.056;2022-07-29T09:32:25;27.40;42.09
67354;SHT30;54238;52.278;21.056;2022-07-29T09:37:46;27.41;42.35
67354;SHT30;54238;52.278;21.056;2022-07-29T09:40:16;27.47;42.20
67354;SHT30;54238;52.278;21.056;2022-07-29T09:42:49;27.45;41.82
67354;SHT30;54238;52.278;21.056;2022-07-29T09:45:27;27.60;41.59
67354;SHT30;54238;52.278;21.056;2022-07-29T09:47:55;27.83;40.81
67354;SHT30;54238;52.278;21.056;2022-07-29T09:50:35;28.06;40.00
67354;SHT30;54238;52.278;21.056;2022-07-29T09:53:04;28.38;39.20
67354;SHT30;54238;52.278;21.056;2022-07-29T09:55:45;28.59;38.46
67354;SHT30;54238;52.278;21.056;2022-07-29T09:58:19;28.58;37.85
67354;SHT30;54238;52.278;21.056;2022-07-29T10:00:52;28.44;37.99
67354;SHT30;54238;52.278;21.056;2022-07-29T10:03:23;28.44;38.45
67354;SHT30;54238;52.278;21.056;2022-07-29T10:06:06;28.41;38.51
67354;SHT30;54238;52.278;21.056;2022-07-29T10:08:39;28.34;38.64
67354;SHT30;54238;52.278;21.056;2022-07-29T10:11:12;28.22;38.95
67354;SHT30;54238;52.278;21.056;2022-07-29T10:13:46;28.15;39.26
67354;SHT30;54238;52.278;21.056;2022-07-29T10:16:19;28.12;39.00
67354;SHT30;54238;52.278;21.056;2022-07-29T10:18:48;27.99;38.66
67354;SHT30;54238;52.278;21.056;2022-07-29T10:21:19;27.93;38.70
67354;SHT30;54238;52.278;21.056;2022-07-29T10:23:49;27.98;38.46
67354;SHT30;54238;52.278;21.056;2022-07-29T10:26:16;28.06;38.23
67354;SHT30;54238;52.278;21.056;2022-07-29T10:28:45;28.17;38.09
67354;SHT30;54238;52.278;21.056;2022-07-29T10:31:28;28.28;37.73
67354;SHT30;54238;52.278;21.056;2022-07-29T10:34:09;28.45;37.79
67354;SHT30;54238;52.278;21.056;2022-07-29T10:42:29;29.03;36.87
67354;SHT30;54238;52.278;21.056;2022-07-29T10:44:57;29.12;36.91
67354;SHT30;54238;52.278;21.056;2022-07-29T10:47:24;29.25;36.76
67354;SHT30;54238;52.278;21.056;2022-07-29T10:49:58;29.38;36.52
67354;SHT30;54238;52.278;21.056;2022-07-29T10:55:34;29.65;35.96
67354;SHT30;54238;52.278;21.056;2022-07-29T10:58:10;29.65;36.26
67354;SHT30;54238;52.278;21.056;2022-07-29T11:00:43;29.84;36.08
67354;SHT30;54238;52.278;21.056;2022-07-29T11:06:07;29.99;34.88
67354;SHT30;54238;52.278;21.056;2022-07-29T11:08:36;29.81;34.92
67354;SHT30;54238;52.278;21.056;2022-07-29T11:13:48;29.85;35.23
67354;SHT30;54238;52.278;21.056;2022-07-29T11:16:23;30.01;34.80
67354;SHT30;54238;52.278;21.056;2022-07-29T11:21:38;29.98;33.99
67354;SHT30;54238;52.278;21.056;2022-07-29T11:24:49;29.94;33.75
67354;SHT30;54238;52.278;21.056;2022-07-29T11:27:31;29.93;34.04
67354;SHT30;54238;52.278;21.056;2022-07-29T11:30:06;29.89;33.64
67354;SHT30;54238;52.278;21.056;2022-07-29T11:32:39;29.75;33.95
67354;SHT30;54238;52.278;21.056;2022-07-29T11:35:15;29.72;34.41
67354;SHT30;54238;52.278;21.056;2022-07-29T11:43:57;29.88;34.84
67354;SHT30;54238;52.278;21.056;2022-07-29T11:46:47;29.96;34.86
67354;SHT30;54238;52.278;21.056;2022-07-29T11:49:23;30.10;34.78
67354;SHT30;54238;52.278;21.056;2022-07-29T11:52:01;30.09;34.70
67354;SHT30;54238;52.278;21.056;2022-07-29T11:54:31;30.06;34.42
67354;SHT30;54238;52.278;21.056;2022-07-29T11:58:01;30.22;34.33
67354;SHT30;54238;52.278;21.056;2022-07-29T12:00:30;30.44;34.02
67354;SHT30;54238;52.278;21.056;2022-07-29T12:03:06;30.77;34.06
67354;SHT30;54238;52.278;21.056;2022-07-29T12:05:40;31.24;33.46
67354;SHT30;54238;52.278;21.056;2022-07-29T12:08:15;31.82;33.20
67354;SHT30;54238;52.278;21.056;2022-07-29T12:10:49;32.48;32.33
67354;SHT30;54238;52.278;21.056;2022-07-29T12:13:20;32.99;31.42
67354;SHT30;54238;52.278;21.056;2022-07-29T12:15:54;33.18;30.77
67354;SHT30;54238;52.278;21.056;2022-07-29T12:18:26;33.16;30.92
67354;SHT30;54238;52.278;21.056;2022-07-29T12:20:58;33.21;29.94
67354;SHT30;54238;52.278;21.056;2022-07-29T12:23:30;33.46;30.17
67354;SHT30;54238;52.278;21.056;2022-07-29T12:26:07;33.21;29.86
67354;SHT30;54238;52.278;21.056;2022-07-29T12:28:39;32.85;29.72
67354;SHT30;54238;52.278;21.056;2022-07-29T12:31:12;32.78;29.74
67354;SHT30;54238;52.278;21.056;2022-07-29T12:33:43;32.99;29.67
67354;SHT30;54238;52.278;21.056;2022-07-29T12:36:20;33.39;29.01
67354;SHT30;54238;52.278;21.056;2022-07-29T12:38:51;33.87;28.85
67354;SHT30;54238;52.278;21.056;2022-07-29T12:41:21;34.16;28.34
67354;SHT30;54238;52.278;21.056;2022-07-29T12:43:52;34.40;28.27
67354;SHT30;54238;52.278;21.056;2022-07-29T12:46:23;34.40;28.21
67354;SHT30;54238;52.278;21.056;2022-07-29T12:48:56;34.19;28.03
67354;SHT30;54238;52.278;21.056;2022-07-29T12:54:13;33.48;28.21
67354;SHT30;54238;52.278;21.056;2022-07-29T12:56:42;32.97;28.57
67354;SHT30;54238;52.278;21.056;2022-07-29T12:59:13;32.49;29.18
67354;SHT30;54238;52.278;21.056;2022-07-29T13:01:50;32.12;29.45
67354;SHT30;54238;52.278;21.056;2022-07-29T13:04:28;31.83;29.95
67354;SHT30;54238;52.278;21.056;2022-07-29T13:07:07;31.52;30.33
67354;SHT30;54238;52.278;21.056;2022-07-29T13:09:38;31.25;30.67
67354;SHT30;54238;52.278;21.056;2022-07-29T13:12:12;31.12;31.26
67354;SHT30;54238;52.278;21.056;2022-07-29T13:14:44;30.90;31.24
67354;SHT30;54238;52.278;21.056;2022-07-29T13:20:07;30.41;32.05
67354;SHT30;54238;52.278;21.056;2022-07-29T13:22:38;30.26;32.07
67354;SHT30;54238;52.278;21.056;2022-07-29T13:25:11;30.11;32.32
67354;SHT30;54238;52.278;21.056;2022-07-29T13:27:38;30.00;32.42
67354;SHT30;54238;52.278;21.056;2022-07-29T13:30:07;29.94;32.49
67354;SHT30;54238;52.278;21.056;2022-07-29T13:32:37;29.90;32.26
67354;SHT30;54238;52.278;21.056;2022-07-29T13:35:07;30.15;32.33
67354;SHT30;54238;52.278;21.056;2022-07-29T13:37:40;30.52;31.99
67354;SHT30;54238;52.278;21.056;2022-07-29T13:40:07;30.90;31.42
67354;SHT30;54238;52.278;21.056;2022-07-29T13:42:38;31.31;31.12
67354;SHT30;54238;52.278;21.056;2022-07-29T13:45:09;31.68;29.91
67354;SHT30;54238;52.278;21.056;2022-07-29T13:47:43;31.94;29.87
67354;SHT30;54238;52.278;21.056;2022-07-29T13:50:17;31.89;29.44
67354;SHT30;54238;52.278;21.056;2022-07-29T13:52:45;31.66;29.66
67354;SHT30;54238;52.278;21.056;2022-07-29T13:57:54;31.78;29.64
67354;SHT30;54238;52.278;21.056;2022-07-29T14:00:21;32.15;29.09
67354;SHT30;54238;52.278;21.056;2022-07-29T14:03:21;32.60;28.61
67354;SHT30;54238;52.278;21.056;2022-07-29T14:05:50;33.14;28.12
67354;SHT30;54238;52.278;21.056;2022-07-29T14:08:22;33.79;27.75
67354;SHT30;54238;52.278;21.056;2022-07-29T14:10:56;34.24;26.83
67354;SHT30;54238;52.278;21.056;2022-07-29T14:13:23;34.41;26.74
67354;SHT30;54238;52.278;21.056;2022-07-29T14:18:49;35.09;25.31
67354;SHT30;54238;52.278;21.056;2022-07-29T14:21:16;35.31;25.00
67354;SHT30;54238;52.278;21.056;2022-07-29T14:23:44;35.20;24.98
67354;SHT30;54238;52.278;21.056;2022-07-29T14:29:11;34.40;25.73
67354;SHT30;54238;52.278;21.056;2022-07-29T14:31:42;34.11;25.86
67354;SHT30;54238;52.278;21.056;2022-07-29T14:34:12;33.89;25.84
67354;SHT30;54238;52.278;21.056;2022-07-29T14:36:39;33.72;25.97
67354;SHT30;54238;52.278;21.056;2022-07-29T14:39:09;33.55;25.96
67354;SHT30;54238;52.278;21.056;2022-07-29T14:44:40;33.51;26.69
67354;SHT30;54238;52.278;21.056;2022-07-29T14:47:12;33.64;26.28
67354;SHT30;54238;52.278;21.056;2022-07-29T14:49:41;33.63;25.83
67354;SHT30;54238;52.278;21.056;2022-07-29T14:52:12;33.47;26.13
67354;SHT30;54238;52.278;21.056;2022-07-29T14:54:41;33.42;26.24
67354;SHT30;54238;52.278;21.056;2022-07-29T15:00:03;33.80;26.26
67354;SHT30;54238;52.278;21.056;2022-07-29T15:02:34;34.10;25.93
67354;SHT30;54238;52.278;21.056;2022-07-29T15:05:04;34.26;25.71
67354;SHT30;54238;52.278;21.056;2022-07-29T15:07:32;34.28;25.47
67354;SHT30;54238;52.278;21.056;2022-07-29T15:10:01;34.38;25.64
67354;SHT30;54238;52.278;21.056;2022-07-29T15:12:31;34.42;25.41
67354;SHT30;54238;52.278;21.056;2022-07-29T15:15:03;34.37;25.34
67354;SHT30;54238;52.278;21.056;2022-07-29T15:17:30;34.55;25.69
67354;SHT30;54238;52.278;21.056;2022-07-29T15:20:04;34.81;25.36
67354;SHT30;54238;52.278;21.056;2022-07-29T15:22:31;34.89;25.26
67354;SHT30;54238;52.278;21.056;2022-07-29T15:25:01;34.91;24.99
67354;SHT30;54238;52.278;21.056;2022-07-29T15:27:28;34.92;24.79
67354;SHT30;54238;52.278;21.056;2022-07-29T15:29:55;34.86;24.79
67354;SHT30;54238;52.278;21.056;2022-07-29T15:32:25;34.80;24.76
67354;SHT30;54238;52.278;21.056;2022-07-29T15:34:55;34.82;24.81
67354;SHT30;54238;52.278;21.056;2022-07-29T15:37:21;34.85;24.72
67354;SHT30;54238;52.278;21.056;2022-07-29T15:39:48;34.92;24.80
67354;SHT30;54238;52.278;21.056;2022-07-29T15:42:15;34.94;25.11
67354;SHT30;54238;52.278;21.056;2022-07-29T15:44:45;35.01;24.87
67354;SHT30;54238;52.278;21.056;2022-07-29T15:47:11;34.90;24.74
67354;SHT30;54238;52.278;21.056;2022-07-29T15:49:39;34.74;24.52
67354;SHT30;54238;52.278;21.056;2022-07-29T15:52:07;34.46;24.66
67354;SHT30;54238;52.278;21.056;2022-07-29T15:54:36;34.09;24.76
67354;SHT30;54238;52.278;21.056;2022-07-29T15:57:14;33.76;25.23
67354;SHT30;54238;52.278;21.056;2022-07-29T15:59:43;33.62;25.60
67354;SHT30;54238;52.278;21.056;2022-07-29T16:02:12;33.41;25.83
67354;SHT30;54238;52.278;21.056;2022-07-29T16:04:43;33.05;25.78
67354;SHT30;54238;52.278;21.056;2022-07-29T16:07:13;32.71;26.26
67354;SHT30;54238;52.278;21.056;2022-07-29T16:09:41;32.45;26.57
67354;SHT30;54238;52.278;21.056;2022-07-29T16:12:12;32.17;26.88
67354;SHT30;54238;52.278;21.056;2022-07-29T16:14:42;31.88;27.46
67354;SHT30;54238;52.278;21.056;2022-07-29T16:17:09;31.73;27.42
67354;SHT30;54238;52.278;21.056;2022-07-29T16:19:37;31.51;27.38
67354;SHT30;54238;52.278;21.056;2022-07-29T16:22:06;31.35;27.68
67354;SHT30;54238;52.278;21.056;2022-07-29T16:24:33;31.13;27.98
67354;SHT30;54238;52.278;21.056;2022-07-29T16:27:06;30.84;28.40
67354;SHT30;54238;52.278;21.056;2022-07-29T16:29:36;30.70;28.52
67354;SHT30;54238;52.278;21.056;2022-07-29T16:32:05;30.59;28.71
67354;SHT30;54238;52.278;21.056;2022-07-29T16:34:34;30.39;28.76
67354;SHT30;54238;52.278;21.056;2022-07-29T16:37:01;30.04;28.92
67354;SHT30;54238;52.278;21.056;2022-07-29T16:39:31;29.67;29.31
67354;SHT30;54238;52.278;21.056;2022-07-29T16:41:58;29.38;29.79
67354;SHT30;54238;52.278;21.056;2022-07-29T16:44:27;29.17;30.20
67354;SHT30;54238;52.278;21.056;2022-07-29T16:46:57;28.94;30.50
67354;SHT30;54238;52.278;21.056;2022-07-29T16:49:24;28.67;30.69
67354;SHT30;54238;52.278;21.056;2022-07-29T16:51:52;28.42;31.08
67354;SHT30;54238;52.278;21.056;2022-07-29T16:54:21;28.24;31.46
67354;SHT30;54238;52.278;21.056;2022-07-29T16:56:51;28.15;31.75
67354;SHT30;54238;52.278;21.056;2022-07-29T16:59:22;28.04;32.00
67354;SHT30;54238;52.278;21.056;2022-07-29T17:01:54;27.90;32.08
67354;SHT30;54238;52.278;21.056;2022-07-29T17:04:21;27.78;32.44